sensor_id;sensor_type;location;lat;lon;timestamp;pressure;altitude;pressure_sealevel;temperature;humidity
59337;BME280;45115;52.002;4.686;2023-05-23T00:02:10;102110.84;;;13.21;98.66
59337;BME280;45115;52.002;4.686;2023-05-23T00:04:38;102117.75;;;13.16;98.45
59337;BME280;45115;52.002;4.686;2023-05-23T00:07:06;102118.34;;;13.19;99.44
59337;BME280;45115;52.002;4.686;2023-05-23T00:09:32;102116.69;;;13.28;99.21
59337;BME280;45115;52.002;4.686;2023-05-23T00:11:59;102109.59;;;13.25;99.24
59337;BME280;45115;52.002;4.686;2023-05-23T00:14:25;102109.72;;;13.24;98.86
59337;BME280;45115;52.002;4.686;2023-05-23T00:16:52;102124.09;;;13.27;98.80
59337;BME280;45115;52.002;4.686;2023-05-23T00:19:19;102113.13;;;13.16;98.12
59337;BME280;45115;52.002;4.686;2023-05-23T00:21:46;102114.75;;;13.19;99.19
59337;BME280;45115;52.002;4.686;2023-05-23T00:24:15;102113.09;;;13.27;99.12
59337;BME280;45115;52.002;4.686;2023-05-23T00:26:43;102127.31;;;13.32;99.50
59337;BME280;45115;52.002;4.686;2023-05-23T00:29:09;102114.50;;;13.22;99.07
59337;BME280;45115;52.002;4.686;2023-05-23T00:31:40;102115.22;;;13.24;99.16
59337;BME280;45115;52.002;4.686;2023-05-23T00:34:07;102121.69;;;13.34;98.91
59337;BME280;45115;52.002;4.686;2023-05-23T00:36:33;102118.19;;;13.32;98.79
59337;BME280;45115;52.002;4.686;2023-05-23T00:39:02;102126.16;;;13.35;98.90
59337;BME280;45115;52.002;4.686;2023-05-23T00:41:30;102123.81;;;13.30;99.05
59337;BME280;45115;52.002;4.686;2023-05-23T00:43:57;102123.81;;;13.30;98.74
59337;BME280;45115;52.002;4.686;2023-05-23T00:46:25;102129.94;;;13.34;99.04
59337;BME280;45115;52.002;4.686;2023-05-23T00:48:52;102120.56;;;13.36;98.28
59337;BME280;45115;52.002;4.686;2023-05-23T00:51:19;102131.56;;;13.36;98.42
59337;BME280;45115;52.002;4.686;2023-05-23T00:53:46;102126.91;;;13.37;98.28
59337;BME280;45115;52.002;4.686;2023-05-23T00:56:13;102133.72;;;13.33;98.12
59337;BME280;45115;52.002;4.686;2023-05-23T00:58:41;102126.84;;;13.27;98.14
59337;BME280;45115;52.002;4.686;2023-05-23T01:01:08;102132.69;;;13.34;98.56
59337;BME280;45115;52.002;4.686;2023-05-23T01:03:35;102137.31;;;13.33;97.94
59337;BME280;45115;52.002;4.686;2023-05-23T01:06:02;102121.59;;;13.24;98.17
59337;BME280;45115;52.002;4.686;2023-05-23T01:08:28;102133.59;;;13.34;98.58
59337;BME280;45115;52.002;4.686;2023-05-23T01:10:57;102133.72;;;13.33;97.92
59337;BME280;45115;52.002;4.686;2023-05-23T01:13:33;102134.19;;;13.38;98.01
59337;BME280;45115;52.002;4.686;2023-05-23T01:16:06;102134.91;;;13.40;97.75
59337;BME280;45115;52.002;4.686;2023-05-23T01:18:37;102134.91;;;13.40;97.46
59337;BME280;45115;52.002;4.686;2023-05-23T01:21:11;102137.41;;;13.43;96.72
59337;BME280;45115;52.002;4.686;2023-05-23T01:23:58;102129.16;;;13.43;96.82
59337;BME280;45115;52.002;4.686;2023-05-23T01:26:42;102129.41;;;13.40;96.45
59337;BME280;45115;52.002;4.686;2023-05-23T01:29:21;102135.59;;;13.53;96.65
59337;BME280;45115;52.002;4.686;2023-05-23T01:31:51;102144.75;;;13.54;96.95
59337;BME280;45115;52.002;4.686;2023-05-23T01:34:19;102133.38;;;13.47;96.70
59337;BME280;45115;52.002;4.686;2023-05-23T01:36:49;102138.88;;;13.47;96.15
59337;BME280;45115;52.002;4.686;2023-05-23T01:39:16;102144.63;;;13.55;96.38
59337;BME280;45115;52.002;4.686;2023-05-23T01:41:42;102146.16;;;13.48;96.14
59337;BME280;45115;52.002;4.686;2023-05-23T01:44:09;102141.38;;;13.50;96.04
59337;BME280;45115;52.002;4.686;2023-05-23T01:46:38;102142.66;;;13.46;94.60
59337;BME280;45115;52.002;4.686;2023-05-23T01:49:07;102142.66;;;13.46;95.23
59337;BME280;45115;52.002;4.686;2023-05-23T01:51:36;102136.66;;;13.41;94.04
59337;BME280;45115;52.002;4.686;2023-05-23T01:54:03;102136.19;;;13.36;94.11
59337;BME280;45115;52.002;4.686;2023-05-23T01:56:30;102146.06;;;13.38;93.97
59337;BME280;45115;52.002;4.686;2023-05-23T01:58:58;102155.19;;;13.39;94.28
59337;BME280;45115;52.002;4.686;2023-05-23T02:01:25;102153.31;;;13.39;94.23
59337;BME280;45115;52.002;4.686;2023-05-23T02:03:53;102149.69;;;13.39;94.21
59337;BME280;45115;52.002;4.686;2023-05-23T02:06:20;102149.06;;;13.35;94.05
59337;BME280;45115;52.002;4.686;2023-05-23T02:08:47;102149.88;;;13.47;94.92
59337;BME280;45115;52.002;4.686;2023-05-23T02:11:13;102144.44;;;13.36;94.39
59337;BME280;45115;52.002;4.686;2023-05-23T02:13:40;102138.59;;;13.29;94.25
59337;BME280;45115;52.002;4.686;2023-05-23T02:16:06;102154.44;;;13.37;93.84
59337;BME280;45115;52.002;4.686;2023-05-23T02:18:33;102141.56;;;13.37;94.12
59337;BME280;45115;52.002;4.686;2023-05-23T02:21:04;102145.56;;;13.33;93.71
59337;BME280;45115;52.002;4.686;2023-05-23T02:23:30;102153.78;;;13.44;93.66
59337;BME280;45115;52.002;4.686;2023-05-23T02:25:57;102149.19;;;13.45;93.38
59337;BME280;45115;52.002;4.686;2023-05-23T02:28:24;102148.31;;;13.33;93.33
59337;BME280;45115;52.002;4.686;2023-05-23T02:30:50;102156.72;;;13.32;93.01
59337;BME280;45115;52.002;4.686;2023-05-23T02:33:17;102154.38;;;13.27;93.02
59337;BME280;45115;52.002;4.686;2023-05-23T02:35:44;102167.09;;;13.28;93.14
59337;BME280;45115;52.002;4.686;2023-05-23T02:38:12;102167.84;;;13.30;93.20
59337;BME280;45115;52.002;4.686;2023-05-23T02:40:40;102173.72;;;13.37;93.01
59337;BME280;45115;52.002;4.686;2023-05-23T02:43:06;102179.34;;;13.35;92.49
59337;BME280;45115;52.002;4.686;2023-05-23T02:45:35;102179.28;;;13.26;92.98
59337;BME280;45115;52.002;4.686;2023-05-23T02:48:03;102186.91;;;13.22;92.05
59337;BME280;45115;52.002;4.686;2023-05-23T02:50:29;102185.91;;;13.23;92.11
59337;BME280;45115;52.002;4.686;2023-05-23T02:52:56;102191.53;;;13.22;92.40
59337;BME280;45115;52.002;4.686;2023-05-23T02:55:24;102178.28;;;13.16;91.63
59337;BME280;45115;52.002;4.686;2023-05-23T02:57:52;102192.78;;;13.18;91.37
59337;BME280;45115;52.002;4.686;2023-05-23T03:00:18;102181.03;;;13.16;91.77
59337;BME280;45115;52.002;4.686;2023-05-23T03:02:49;102192.16;;;13.14;91.21
59337;BME280;45115;52.002;4.686;2023-05-23T03:05:17;102193.03;;;13.15;91.27
59337;BME280;45115;52.002;4.686;2023-05-23T03:07:43;102186.78;;;13.13;90.78
59337;BME280;45115;52.002;4.686;2023-05-23T03:10:10;102187.28;;;13.18;90.71
59337;BME280;45115;52.002;4.686;2023-05-23T03:12:38;102198.28;;;13.07;90.34
59337;BME280;45115;52.002;4.686;2023-05-23T03:15:06;102195.19;;;13.11;91.06
59337;BME280;45115;52.002;4.686;2023-05-23T03:17:36;102191.69;;;13.09;90.56
59337;BME280;45115;52.002;4.686;2023-05-23T03:20:04;102197.06;;;13.11;91.20
59337;BME280;45115;52.002;4.686;2023-05-23T03:22:33;102199.06;;;13.09;90.14
59337;BME280;45115;52.002;4.686;2023-05-23T03:25:01;102188.78;;;13.11;90.20
59337;BME280;45115;52.002;4.686;2023-05-23T03:27:28;102198.28;;;13.07;90.81
59337;BME280;45115;52.002;4.686;2023-05-23T03:29:56;102199.69;;;13.01;90.67
59337;BME280;45115;52.002;4.686;2023-05-23T03:32:23;102194.66;;;12.95;90.60
59337;BME280;45115;52.002;4.686;2023-05-23T03:34:49;102197.94;;;13.11;91.13
59337;BME280;45115;52.002;4.686;2023-05-23T03:37:16;102199.44;;;13.04;90.62
59337;BME280;45115;52.002;4.686;2023-05-23T03:39:43;102196.53;;;12.95;90.51
59337;BME280;45115;52.002;4.686;2023-05-23T03:42:09;102206.78;;;12.93;90.16
59337;BME280;45115;52.002;4.686;2023-05-23T03:44:36;102200.81;;;12.88;90.41
59337;BME280;45115;52.002;4.686;2023-05-23T03:47:06;102205.69;;;12.84;90.04
59337;BME280;45115;52.002;4.686;2023-05-23T03:49:35;102200.66;;;12.89;89.46
59337;BME280;45115;52.002;4.686;2023-05-23T03:52:02;102209.84;;;12.79;88.79
59337;BME280;45115;52.002;4.686;2023-05-23T03:54:28;102210.19;;;12.74;89.26
59337;BME280;45115;52.002;4.686;2023-05-23T03:56:55;102213.81;;;12.75;88.75
59337;BME280;45115;52.002;4.686;2023-05-23T03:59:22;102215.44;;;12.77;89.45
59337;BME280;45115;52.002;4.686;2023-05-23T04:01:49;102222.81;;;12.77;88.95
59337;BME280;45115;52.002;4.686;2023-05-23T04:04:17;102222.69;;;12.78;88.82
59337;BME280;45115;52.002;4.686;2023-05-23T04:06:45;102224.69;;;12.76;89.04
59337;BME280;45115;52.002;4.686;2023-05-23T04:09:13;102228.44;;;12.64;88.64
59337;BME280;45115;52.002;4.686;2023-05-23T04:11:42;102234.69;;;12.66;88.00
59337;BME280;45115;52.002;4.686;2023-05-23T04:14:08;102233.56;;;12.58;87.89
59337;BME280;45115;52.002;4.686;2023-05-23T04:16:36;102242.19;;;12.64;88.03
59337;BME280;45115;52.002;4.686;2023-05-23T04:19:05;102247.19;;;12.59;87.55
59337;BME280;45115;52.002;4.686;2023-05-23T04:21:35;102246.31;;;12.59;88.12
59337;BME280;45115;52.002;4.686;2023-05-23T04:24:07;102247.19;;;12.59;87.74
59337;BME280;45115;52.002;4.686;2023-05-23T04:26:34;102257.31;;;12.59;87.12
59337;BME280;45115;52.002;4.686;2023-05-23T04:29:02;102253.81;;;12.57;87.46
59337;BME280;45115;52.002;4.686;2023-05-23T04:31:30;102251.31;;;12.54;86.52
59337;BME280;45115;52.002;4.686;2023-05-23T04:33:58;102248.44;;;12.55;86.28
59337;BME280;45115;52.002;4.686;2023-05-23T04:36:28;102237.28;;;12.46;85.99
59337;BME280;45115;52.002;4.686;2023-05-23T04:42:25;102258.91;;;12.50;86.29
59337;BME280;45115;52.002;4.686;2023-05-23T04:45:05;102266.53;;;12.47;85.97
59337;BME280;45115;52.002;4.686;2023-05-23T04:47:54;102269.53;;;12.44;85.75
59337;BME280;45115;52.002;4.686;2023-05-23T04:50:40;102268.66;;;12.43;85.14
59337;BME280;45115;52.002;4.686;2023-05-23T04:53:07;102280.75;;;12.41;85.58
59337;BME280;45115;52.002;4.686;2023-05-23T04:55:35;102284.00;;;12.34;85.13
59337;BME280;45115;52.002;4.686;2023-05-23T04:58:02;102282.16;;;12.46;85.64
59337;BME280;45115;52.002;4.686;2023-05-23T05:00:29;102292.88;;;12.38;84.61
59337;BME280;45115;52.002;4.686;2023-05-23T05:02:56;102293.91;;;12.48;83.83
59337;BME280;45115;52.002;4.686;2023-05-23T05:05:26;102298.53;;;12.59;85.06
59337;BME280;45115;52.002;4.686;2023-05-23T05:07:53;102298.66;;;12.57;85.31
59337;BME280;45115;52.002;4.686;2023-05-23T05:10:20;102294.78;;;12.49;84.65
59337;BME280;45115;52.002;4.686;2023-05-23T05:12:48;102291.88;;;12.39;84.58
59337;BME280;45115;52.002;4.686;2023-05-23T05:15:18;102310.38;;;12.48;83.49
59337;BME280;45115;52.002;4.686;2023-05-23T05:17:48;102308.09;;;12.42;83.64
59337;BME280;45115;52.002;4.686;2023-05-23T05:20:17;102315.63;;;12.51;83.60
59337;BME280;45115;52.002;4.686;2023-05-23T05:22:44;102311.03;;;12.52;83.13
59337;BME280;45115;52.002;4.686;2023-05-23T05:25:11;102313.88;;;12.50;83.06
59337;BME280;45115;52.002;4.686;2023-05-23T05:27:38;102318.28;;;12.64;82.67
59337;BME280;45115;52.002;4.686;2023-05-23T05:30:10;102316.38;;;12.53;82.25
59337;BME280;45115;52.002;4.686;2023-05-23T05:32:45;102324.50;;;12.55;82.70
59337;BME280;45115;52.002;4.686;2023-05-23T05:35:16;102323.38;;;12.46;82.12
59337;BME280;45115;52.002;4.686;2023-05-23T05:37:47;102320.13;;;12.41;82.12
59337;BME280;45115;52.002;4.686;2023-05-23T05:40:14;102335.44;;;12.32;81.57
59337;BME280;45115;52.002;4.686;2023-05-23T05:42:41;102334.00;;;12.51;82.20
59337;BME280;45115;52.002;4.686;2023-05-23T05:45:10;102342.13;;;12.63;79.69
59337;BME280;45115;52.002;4.686;2023-05-23T05:47:39;102343.03;;;12.64;78.87
59337;BME280;45115;52.002;4.686;2023-05-23T05:50:06;102336.16;;;12.69;79.25
59337;BME280;45115;52.002;4.686;2023-05-23T05:52:35;102338.38;;;12.53;79.09
59337;BME280;45115;52.002;4.686;2023-05-23T05:55:05;102345.66;;;12.54;80.77
59337;BME280;45115;52.002;4.686;2023-05-23T05:57:37;102348.91;;;12.59;81.67
59337;BME280;45115;52.002;4.686;2023-05-23T06:00:05;102353.50;;;12.59;81.92
59337;BME280;45115;52.002;4.686;2023-05-23T06:02:45;102347.25;;;12.57;82.69
59337;BME280;45115;52.002;4.686;2023-05-23T06:05:16;102354.03;;;12.64;83.26
59337;BME280;45115;52.002;4.686;2023-05-23T06:07:44;102343.63;;;12.56;84.60
59337;BME280;45115;52.002;4.686;2023-05-23T06:10:13;102352.50;;;12.60;84.37
59337;BME280;45115;52.002;4.686;2023-05-23T06:12:40;102359.25;;;12.56;84.27
59337;BME280;45115;52.002;4.686;2023-05-23T06:15:08;102357.03;;;12.61;84.90
59337;BME280;45115;52.002;4.686;2023-05-23T06:17:36;102358.16;;;12.69;85.51
59337;BME280;45115;52.002;4.686;2023-05-23T06:20:06;102364.03;;;12.65;84.93
59337;BME280;45115;52.002;4.686;2023-05-23T06:22:34;102363.53;;;12.71;86.10
59337;BME280;45115;52.002;4.686;2023-05-23T06:25:01;102361.25;;;12.54;84.70
59337;BME280;45115;52.002;4.686;2023-05-23T06:27:28;102361.13;;;12.55;86.30
59337;BME280;45115;52.002;4.686;2023-05-23T06:29:55;102366.13;;;12.50;85.19
59337;BME280;45115;52.002;4.686;2023-05-23T06:32:21;102371.59;;;12.50;86.10
59337;BME280;45115;52.002;4.686;2023-05-23T06:34:50;102365.22;;;12.50;86.49
59337;BME280;45115;52.002;4.686;2023-05-23T06:37:18;102367.38;;;12.57;86.44
59337;BME280;45115;52.002;4.686;2023-05-23T06:39:44;102364.13;;;12.52;87.22
59337;BME280;45115;52.002;4.686;2023-05-23T06:42:11;102363.50;;;12.49;86.87
59337;BME280;45115;52.002;4.686;2023-05-23T06:45:00;102373.34;;;12.51;87.33
59337;BME280;45115;52.002;4.686;2023-05-23T06:47:26;102373.66;;;12.59;87.73
59337;BME280;45115;52.002;4.686;2023-05-23T06:49:53;102370.25;;;12.56;87.88
59337;BME280;45115;52.002;4.686;2023-05-23T06:52:21;102378.63;;;12.65;86.43
59337;BME280;45115;52.002;4.686;2023-05-23T06:54:49;102377.03;;;12.63;87.33
59337;BME280;45115;52.002;4.686;2023-05-23T06:57:17;102380.00;;;12.60;88.31
59337;BME280;45115;52.002;4.686;2023-05-23T06:59:44;102377.38;;;12.58;87.45
59337;BME280;45115;52.002;4.686;2023-05-23T07:02:11;102380.13;;;12.58;87.05
59337;BME280;45115;52.002;4.686;2023-05-23T07:04:37;102383.50;;;12.51;85.82
59337;BME280;45115;52.002;4.686;2023-05-23T07:07:10;102390.06;;;12.72;85.19
59337;BME280;45115;52.002;4.686;2023-05-23T07:09:38;102384.63;;;13.16;84.22
59337;BME280;45115;52.002;4.686;2023-05-23T07:12:10;102394.03;;;13.47;79.76
59337;BME280;45115;52.002;4.686;2023-05-23T07:14:40;102396.66;;;13.48;77.51
59337;BME280;45115;52.002;4.686;2023-05-23T07:17:08;102381.16;;;13.36;76.60
59337;BME280;45115;52.002;4.686;2023-05-23T07:19:36;102396.00;;;13.78;74.90
59337;BME280;45115;52.002;4.686;2023-05-23T07:22:02;102406.78;;;14.34;69.64
59337;BME280;45115;52.002;4.686;2023-05-23T07:24:31;102399.38;;;14.24;68.00
59337;BME280;45115;52.002;4.686;2023-05-23T07:27:00;102402.34;;;14.43;68.78
59337;BME280;45115;52.002;4.686;2023-05-23T07:29:27;102392.59;;;15.21;65.06
59337;BME280;45115;52.002;4.686;2023-05-23T07:31:54;102399.84;;;15.83;63.70
59337;BME280;45115;52.002;4.686;2023-05-23T07:34:21;102402.78;;;15.91;61.62
59337;BME280;45115;52.002;4.686;2023-05-23T07:36:52;102409.19;;;15.01;64.09
59337;BME280;45115;52.002;4.686;2023-05-23T07:39:20;102407.34;;;15.11;63.78
59337;BME280;45115;52.002;4.686;2023-05-23T07:41:49;102408.44;;;14.78;64.40
59337;BME280;45115;52.002;4.686;2023-05-23T07:44:19;102412.69;;;15.33;62.49
59337;BME280;45115;52.002;4.686;2023-05-23T07:46:46;102404.97;;;15.97;59.47
59337;BME280;45115;52.002;4.686;2023-05-23T07:49:12;102404.72;;;16.19;58.85
59337;BME280;45115;52.002;4.686;2023-05-23T07:51:39;102413.59;;;15.63;60.93
59337;BME280;45115;52.002;4.686;2023-05-23T07:54:08;102406.25;;;16.61;57.45
59337;BME280;45115;52.002;4.686;2023-05-23T07:56:38;102411.41;;;16.07;57.67
59337;BME280;45115;52.002;4.686;2023-05-23T07:59:05;102416.50;;;15.62;60.42
59337;BME280;45115;52.002;4.686;2023-05-23T08:01:34;102417.16;;;15.85;59.65
59337;BME280;45115;52.002;4.686;2023-05-23T08:04:03;102421.81;;;15.44;61.00
59337;BME280;45115;52.002;4.686;2023-05-23T08:06:35;102425.56;;;15.74;59.80
59337;BME280;45115;52.002;4.686;2023-05-23T08:09:07;102413.03;;;15.39;61.07
59337;BME280;45115;52.002;4.686;2023-05-23T08:11:38;102421.16;;;15.71;61.16
59337;BME280;45115;52.002;4.686;2023-05-23T08:14:05;102417.34;;;15.53;61.13
59337;BME280;45115;52.002;4.686;2023-05-23T08:16:36;102419.97;;;16.13;60.53
59337;BME280;45115;52.002;4.686;2023-05-23T08:19:06;102415.34;;;17.09;58.11
59337;BME280;45115;52.002;4.686;2023-05-23T08:21:34;102421.38;;;16.95;58.13
59337;BME280;45115;52.002;4.686;2023-05-23T08:24:01;102423.25;;;17.60;55.87
59337;BME280;45115;52.002;4.686;2023-05-23T08:26:27;102430.22;;;17.64;51.80
59337;BME280;45115;52.002;4.686;2023-05-23T08:28:59;102423.75;;;17.36;53.60
59337;BME280;45115;52.002;4.686;2023-05-23T08:31:29;102421.88;;;18.01;50.25
59337;BME280;45115;52.002;4.686;2023-05-23T08:33:58;102425.16;;;18.76;49.79
59337;BME280;45115;52.002;4.686;2023-05-23T08:36:25;102429.44;;;17.35;50.20
59337;BME280;45115;52.002;4.686;2023-05-23T08:38:51;102437.44;;;18.11;51.77
59337;BME280;45115;52.002;4.686;2023-05-23T08:41:24;102416.28;;;17.56;50.37
59337;BME280;45115;52.002;4.686;2023-05-23T08:43:57;102426.06;;;17.50;52.11
59337;BME280;45115;52.002;4.686;2023-05-23T08:46:28;102423.56;;;16.82;56.69
59337;BME280;45115;52.002;4.686;2023-05-23T08:48:57;102424.22;;;17.32;55.27
59337;BME280;45115;52.002;4.686;2023-05-23T08:51:27;102422.28;;;17.78;52.85
59337;BME280;45115;52.002;4.686;2023-05-23T08:53:57;102420.03;;;17.92;54.64
59337;BME280;45115;52.002;4.686;2023-05-23T08:56:27;102426.56;;;17.08;56.15
59337;BME280;45115;52.002;4.686;2023-05-23T08:58:55;102431.88;;;16.63;56.41
59337;BME280;45115;52.002;4.686;2023-05-23T09:01:23;102441.19;;;16.62;54.59
59337;BME280;45115;52.002;4.686;2023-05-23T09:03:54;102433.75;;;16.91;54.73
59337;BME280;45115;52.002;4.686;2023-05-23T09:06:34;102452.31;;;17.56;53.23
59337;BME280;45115;52.002;4.686;2023-05-23T09:09:01;102442.00;;;18.03;49.02
59337;BME280;45115;52.002;4.686;2023-05-23T09:11:28;102442.59;;;18.86;48.78
59337;BME280;45115;52.002;4.686;2023-05-23T09:13:56;102442.63;;;18.51;51.97
59337;BME280;45115;52.002;4.686;2023-05-23T09:16:23;102447.75;;;17.64;53.38
59337;BME280;45115;52.002;4.686;2023-05-23T09:18:53;102457.56;;;17.40;54.18
59337;BME280;45115;52.002;4.686;2023-05-23T09:21:23;102462.47;;;16.81;55.70
59337;BME280;45115;52.002;4.686;2023-05-23T09:24:09;102456.06;;;16.12;56.35
59337;BME280;45115;52.002;4.686;2023-05-23T09:26:36;102455.31;;;16.00;56.63
59337;BME280;45115;52.002;4.686;2023-05-23T09:29:04;102452.56;;;16.68;55.05
59337;BME280;45115;52.002;4.686;2023-05-23T09:31:31;102465.19;;;17.09;53.49
59337;BME280;45115;52.002;4.686;2023-05-23T09:33:58;102451.47;;;18.10;48.38
59337;BME280;45115;52.002;4.686;2023-05-23T09:36:27;102470.59;;;18.30;50.47
59337;BME280;45115;52.002;4.686;2023-05-23T09:38:55;102465.75;;;17.51;52.48
59337;BME280;45115;52.002;4.686;2023-05-23T09:41:23;102457.09;;;17.91;48.03
59337;BME280;45115;52.002;4.686;2023-05-23T09:43:51;102462.84;;;18.61;45.54
59337;BME280;45115;52.002;4.686;2023-05-23T09:46:20;102464.56;;;18.17;48.73
59337;BME280;45115;52.002;4.686;2023-05-23T09:48:47;102454.19;;;17.55;50.99
59337;BME280;45115;52.002;4.686;2023-05-23T09:51:17;102464.41;;;17.45;53.17
59337;BME280;45115;52.002;4.686;2023-05-23T09:53:45;102466.34;;;17.35;49.65
59337;BME280;45115;52.002;4.686;2023-05-23T09:56:12;102471.13;;;17.52;52.39
59337;BME280;45115;52.002;4.686;2023-05-23T09:58:46;102459.56;;;17.66;53.05
59337;BME280;45115;52.002;4.686;2023-05-23T10:01:13;102461.78;;;17.90;51.57
59337;BME280;45115;52.002;4.686;2023-05-23T10:03:45;102459.75;;;17.27;53.11
59337;BME280;45115;52.002;4.686;2023-05-23T10:06:17;102472.88;;;17.34;53.42
59337;BME280;45115;52.002;4.686;2023-05-23T10:08:53;102473.19;;;17.31;49.91
59337;BME280;45115;52.002;4.686;2023-05-23T10:14:18;102469.28;;;17.70;47.98
59337;BME280;45115;52.002;4.686;2023-05-23T10:16:58;102472.00;;;17.34;51.68
59337;BME280;45115;52.002;4.686;2023-05-23T10:19:34;102472.94;;;16.58;55.65
59337;BME280;45115;52.002;4.686;2023-05-23T10:22:07;102475.13;;;16.83;56.94
59337;BME280;45115;52.002;4.686;2023-05-23T10:24:35;102482.97;;;17.16;55.68
59337;BME280;45115;52.002;4.686;2023-05-23T10:27:03;102475.56;;;16.79;56.83
59337;BME280;45115;52.002;4.686;2023-05-23T10:29:31;102472.06;;;16.86;57.01
59337;BME280;45115;52.002;4.686;2023-05-23T10:32:00;102484.72;;;16.69;57.12
59337;BME280;45115;52.002;4.686;2023-05-23T10:34:31;102484.56;;;16.52;56.40
59337;BME280;45115;52.002;4.686;2023-05-23T10:37:01;102490.63;;;16.27;58.70
59337;BME280;45115;52.002;4.686;2023-05-23T10:39:45;102487.84;;;16.27;59.07
59337;BME280;45115;52.002;4.686;2023-05-23T10:42:19;102495.50;;;16.63;58.01
59337;BME280;45115;52.002;4.686;2023-05-23T10:44:50;102501.59;;;16.08;57.88
59337;BME280;45115;52.002;4.686;2023-05-23T10:47:25;102493.38;;;16.36;56.89
59337;BME280;45115;52.002;4.686;2023-05-23T10:49:54;102498.72;;;17.16;56.35
59337;BME280;45115;52.002;4.686;2023-05-23T10:52:23;102497.22;;;17.40;55.02
59337;BME280;45115;52.002;4.686;2023-05-23T10:54:51;102492.88;;;17.09;56.47
59337;BME280;45115;52.002;4.686;2023-05-23T10:57:20;102482.56;;;16.83;56.69
59337;BME280;45115;52.002;4.686;2023-05-23T10:59:50;102483.41;;;16.64;56.37
59337;BME280;45115;52.002;4.686;2023-05-23T11:02:19;102492.50;;;16.26;57.45
59337;BME280;45115;52.002;4.686;2023-05-23T11:05:17;102500.53;;;16.39;56.84
59337;BME280;45115;52.002;4.686;2023-05-23T11:07:44;102499.72;;;17.15;55.19
59337;BME280;45115;52.002;4.686;2023-05-23T11:10:12;102480.31;;;17.34;55.78
59337;BME280;45115;52.002;4.686;2023-05-23T11:12:40;102494.16;;;17.34;54.48
59337;BME280;45115;52.002;4.686;2023-05-23T11:15:21;102494.16;;;16.48;56.19
59337;BME280;45115;52.002;4.686;2023-05-23T11:17:50;102490.28;;;16.79;56.28
59337;BME280;45115;52.002;4.686;2023-05-23T11:20:18;102496.53;;;16.71;55.94
59337;BME280;45115;52.002;4.686;2023-05-23T11:22:55;102492.88;;;17.19;54.47
59337;BME280;45115;52.002;4.686;2023-05-23T11:25:39;102492.97;;;17.55;53.41
59337;BME280;45115;52.002;4.686;2023-05-23T11:28:07;102501.53;;;18.35;51.38
59337;BME280;45115;52.002;4.686;2023-05-23T11:30:36;102495.81;;;18.19;50.00
59337;BME280;45115;52.002;4.686;2023-05-23T11:33:06;102500.63;;;17.25;53.77
59337;BME280;45115;52.002;4.686;2023-05-23T11:35:35;102495.78;;;17.08;55.17
59337;BME280;45115;52.002;4.686;2023-05-23T11:38:04;102496.31;;;17.59;54.29
59337;BME280;45115;52.002;4.686;2023-05-23T11:40:32;102506.53;;;17.58;52.42
59337;BME280;45115;52.002;4.686;2023-05-23T11:42:59;102508.25;;;17.69;52.96
59337;BME280;45115;52.002;4.686;2023-05-23T11:45:27;102507.88;;;17.54;50.78
59337;BME280;45115;52.002;4.686;2023-05-23T11:47:55;102508.34;;;17.21;52.41
59337;BME280;45115;52.002;4.686;2023-05-23T11:50:22;102513.59;;;16.96;52.85
59337;BME280;45115;52.002;4.686;2023-05-23T11:52:50;102506.72;;;16.71;55.00
59337;BME280;45115;52.002;4.686;2023-05-23T11:55:18;102516.28;;;16.48;57.23
59337;BME280;45115;52.002;4.686;2023-05-23T11:57:45;102495.19;;;17.42;55.12
59337;BME280;45115;52.002;4.686;2023-05-23T12:00:14;102513.00;;;17.02;55.52
59337;BME280;45115;52.002;4.686;2023-05-23T12:02:42;102506.00;;;16.79;56.09
59337;BME280;45115;52.002;4.686;2023-05-23T12:05:12;102505.28;;;16.18;56.10
59337;BME280;45115;52.002;4.686;2023-05-23T12:07:39;102511.16;;;15.94;56.39
59337;BME280;45115;52.002;4.686;2023-05-23T12:10:07;102492.72;;;16.53;54.57
59337;BME280;45115;52.002;4.686;2023-05-23T12:12:50;102505.28;;;16.96;53.14
59337;BME280;45115;52.002;4.686;2023-05-23T12:15:16;102497.97;;;17.04;53.57
59337;BME280;45115;52.002;4.686;2023-05-23T12:17:44;102510.25;;;16.24;54.75
59337;BME280;45115;52.002;4.686;2023-05-23T12:20:12;102509.13;;;15.96;57.17
59337;BME280;45115;52.002;4.686;2023-05-23T12:22:40;102521.53;;;16.02;56.77
59337;BME280;45115;52.002;4.686;2023-05-23T12:25:07;102519.97;;;16.18;54.86
59337;BME280;45115;52.002;4.686;2023-05-23T12:27:34;102511.09;;;16.83;53.79
59337;BME280;45115;52.002;4.686;2023-05-23T12:30:05;102519.56;;;17.01;53.04
59337;BME280;45115;52.002;4.686;2023-05-23T12:32:33;102513.06;;;18.04;51.76
59337;BME280;45115;52.002;4.686;2023-05-23T12:35:00;102507.69;;;17.65;52.84
59337;BME280;45115;52.002;4.686;2023-05-23T12:37:28;102514.16;;;17.28;53.60
59337;BME280;45115;52.002;4.686;2023-05-23T12:39:55;102500.16;;;16.62;55.95
59337;BME280;45115;52.002;4.686;2023-05-23T12:42:22;102499.56;;;16.59;56.07
59337;BME280;45115;52.002;4.686;2023-05-23T12:44:50;102511.22;;;16.62;55.91
59337;BME280;45115;52.002;4.686;2023-05-23T12:47:17;102511.69;;;16.96;52.95
59337;BME280;45115;52.002;4.686;2023-05-23T12:49:44;102514.72;;;16.64;54.61
59337;BME280;45115;52.002;4.686;2023-05-23T12:52:12;102517.09;;;16.20;58.02
59337;BME280;45115;52.002;4.686;2023-05-23T12:54:40;102518.66;;;16.13;58.43
59337;BME280;45115;52.002;4.686;2023-05-23T12:57:06;102518.22;;;16.47;57.31
59337;BME280;45115;52.002;4.686;2023-05-23T12:59:33;102522.94;;;16.95;55.25
59337;BME280;45115;52.002;4.686;2023-05-23T13:02:00;102515.94;;;17.00;54.29
59337;BME280;45115;52.002;4.686;2023-05-23T13:04:26;102502.91;;;17.58;53.68
59337;BME280;45115;52.002;4.686;2023-05-23T13:06:53;102504.91;;;18.02;53.55